createdAt,value
2019-02-03T00:00:03.137Z,32.50
2019-02-03T00:01:03.088Z,31.80
2019-02-03T00:02:02.953Z,32.70
2019-02-03T00:03:02.899Z,32.40
2019-02-03T00:04:02.929Z,31.30
2019-02-03T00:05:02.851Z,32.40
2019-02-03T00:06:02.817Z,32.60
2019-02-03T00:07:03.701Z,31.70
2019-02-03T00:08:02.849Z,31.10
2019-02-03T00:09:02.729Z,30.70
2019-02-03T00:10:02.708Z,32.60
2019-02-03T00:11:02.709Z,32.00
2019-02-03T00:12:02.657Z,32.00
2019-02-03T00:13:02.649Z,33.40
2019-02-03T00:14:02.609Z,32.30
2019-02-03T00:15:02.602Z,31.60
2019-02-03T00:16:02.539Z,32.30
2019-02-03T00:17:02.521Z,32.30
2019-02-03T00:18:02.496Z,31.90
2019-02-03T00:19:02.482Z,32.10
2019-02-03T00:20:02.434Z,31.90
2019-02-03T00:21:04.030Z,31.70
2019-02-03T00:22:02.413Z,33.80
2019-02-03T00:23:02.364Z,33.80
2019-02-03T00:24:02.362Z,34.90
2019-02-03T00:25:02.301Z,33.00
2019-02-03T00:26:02.327Z,31.80
2019-02-03T00:27:02.280Z,32.70
2019-02-03T00:28:02.214Z,33.00
2019-02-03T00:29:02.214Z,32.80
2019-02-03T00:30:02.159Z,32.80
2019-02-03T00:31:02.136Z,34.90
2019-02-03T00:32:02.190Z,31.40
2019-02-03T00:33:02.089Z,33.00
2019-02-03T00:34:02.049Z,35.00
2019-02-03T00:35:02.100Z,34.40
2019-02-03T00:36:02.021Z,35.90
2019-02-03T00:37:02.041Z,35.60
2019-02-03T00:38:02.114Z,35.20
2019-02-03T00:39:01.975Z,33.80
2019-02-03T00:40:02.031Z,34.20
2019-02-03T00:41:02.031Z,36.10
2019-02-03T00:42:01.847Z,35.60
2019-02-03T00:43:01.837Z,35.00
2019-02-03T00:44:01.817Z,34.40
2019-02-03T00:45:01.768Z,34.70
2019-02-03T00:46:01.747Z,36.10
2019-02-03T00:47:01.701Z,35.40
2019-02-03T00:48:01.672Z,34.00
2019-02-03T00:49:01.653Z,34.50
2019-02-03T00:50:01.626Z,35.50
2019-02-03T00:51:01.599Z,35.30
2019-02-03T00:52:01.575Z,34.60
2019-02-03T00:53:01.559Z,36.40
2019-02-03T00:54:01.524Z,35.30
2019-02-03T00:55:01.508Z,35.20
2019-02-03T00:56:01.454Z,37.40
2019-02-03T00:57:01.432Z,34.50
2019-02-03T00:58:01.427Z,35.00
2019-02-03T00:59:01.498Z,34.20
2019-02-03T01:00:01.374Z,36.00
2019-02-03T01:01:01.462Z,35.20
2019-02-03T01:02:01.297Z,36.00
2019-02-03T01:03:01.269Z,37.20
2019-02-03T01:04:01.234Z,37.40
2019-02-03T01:05:01.227Z,36.80
2019-02-03T01:06:01.176Z,39.90
2019-02-03T01:07:01.204Z,37.00
2019-02-03T01:08:01.546Z,35.40
2019-02-03T01:09:01.453Z,38.40
2019-02-03T01:10:01.268Z,36.40
2019-02-03T01:11:01.198Z,35.90
2019-02-03T01:12:01.020Z,36.70
2019-02-03T01:13:01.306Z,36.80
2019-02-03T01:14:00.958Z,37.10
2019-02-03T01:15:00.974Z,36.80
2019-02-03T01:16:00.911Z,36.90
2019-02-03T01:17:00.879Z,38.60
2019-02-03T01:18:00.872Z,38.70
2019-02-03T01:19:00.854Z,38.20
2019-02-03T01:20:00.826Z,37.80
2019-02-03T01:21:00.762Z,37.30
2019-02-03T01:22:00.746Z,39.10
2019-02-03T01:23:00.721Z,38.10
2019-02-03T01:24:00.708Z,36.10
2019-02-03T01:25:00.707Z,38.00
2019-02-03T01:26:00.715Z,37.00
2019-02-03T01:27:00.603Z,37.70
2019-02-03T01:28:00.577Z,38.70
2019-02-03T01:29:00.543Z,37.90
2019-02-03T01:30:00.518Z,39.20
2019-02-03T01:31:00.520Z,37.00
2019-02-03T01:32:00.475Z,36.90
2019-02-03T01:33:00.430Z,36.70
2019-02-03T01:34:00.456Z,37.80
2019-02-03T01:35:00.407Z,37.60
2019-02-03T01:36:00.395Z,36.70
2019-02-03T01:37:00.362Z,37.10
2019-02-03T01:38:00.322Z,37.20
2019-02-03T01:39:00.289Z,36.90
2019-02-03T01:40:00.362Z,36.50
2019-02-03T01:41:00.219Z,35.00
2019-02-03T01:42:00.213Z,37.90
2019-02-03T01:43:00.241Z,36.70
2019-02-03T01:44:00.139Z,35.70
2019-02-03T01:45:00.318Z,35.70
2019-02-03T01:46:00.175Z,36.30
2019-02-03T01:47:00.055Z,35.70
2019-02-03T01:48:00.037Z,35.70
2019-02-03T01:49:00.030Z,35.50
2019-02-03T01:49:59.981Z,37.90
2019-02-03T01:50:59.944Z,35.80
2019-02-03T01:51:59.912Z,36.60
2019-02-03T01:52:59.932Z,35.90
2019-02-03T01:53:59.872Z,36.30
2019-02-03T01:54:59.833Z,36.00
2019-02-03T01:55:59.834Z,36.40
2019-02-03T01:56:59.796Z,37.00
2019-02-03T01:57:59.764Z,34.40
2019-02-03T01:58:59.731Z,34.30
2019-02-03T01:59:59.723Z,35.70
2019-02-03T02:00:59.666Z,35.50
2019-02-03T02:01:59.669Z,35.50
2019-02-03T02:02:59.637Z,35.50
2019-02-03T02:03:59.627Z,35.40
2019-02-03T02:04:59.566Z,36.10
2019-02-03T02:05:59.579Z,35.70
2019-02-03T02:06:59.516Z,35.00
2019-02-03T02:07:59.500Z,35.50
2019-02-03T02:08:59.466Z,35.00
2019-02-03T02:09:59.421Z,35.00
2019-02-03T02:10:59.407Z,36.00
2019-02-03T02:11:59.378Z,35.00
2019-02-03T02:12:59.356Z,33.10
2019-02-03T02:13:59.321Z,34.90
2019-02-03T02:14:59.315Z,35.70
2019-02-03T02:15:59.264Z,35.70
2019-02-03T02:16:59.278Z,34.90
2019-02-03T02:17:59.211Z,35.60
2019-02-03T02:18:59.186Z,35.00
2019-02-03T02:19:59.153Z,33.10
2019-02-03T02:20:59.135Z,34.20
2019-02-03T02:21:59.097Z,33.40
2019-02-03T02:22:59.070Z,32.90
2019-02-03T02:23:59.051Z,33.20
2019-02-03T02:24:59.018Z,33.20
2019-02-03T02:25:58.984Z,34.90
2019-02-03T02:26:58.965Z,33.60
2019-02-03T02:27:58.982Z,34.70
2019-02-03T02:28:58.946Z,34.50
2019-02-03T02:29:58.900Z,34.00
2019-02-03T02:30:58.862Z,33.30
2019-02-03T02:31:58.856Z,33.50
2019-02-03T02:32:58.791Z,33.70
2019-02-03T02:33:58.773Z,33.60
2019-02-03T02:34:58.806Z,33.00
2019-02-03T02:35:58.724Z,34.90
2019-02-03T02:36:58.801Z,35.10
2019-02-03T02:38:06.534Z,35.20
2019-02-03T02:38:58.667Z,36.10
2019-02-03T02:40:11.779Z,34.20
2019-02-03T02:40:58.609Z,35.20
2019-02-03T02:41:58.596Z,34.50
2019-02-03T02:42:58.614Z,33.40
2019-02-03T02:43:58.561Z,33.90
2019-02-03T02:44:58.497Z,34.70
2019-02-03T02:45:58.460Z,35.20
2019-02-03T02:46:58.458Z,33.60
2019-02-03T02:47:58.387Z,33.80
2019-02-03T02:48:58.371Z,32.60
2019-02-03T02:49:58.374Z,33.40
2019-02-03T02:50:58.302Z,31.90
2019-02-03T02:51:58.285Z,32.80
2019-02-03T02:52:58.257Z,34.70
2019-02-03T02:53:58.977Z,31.90
2019-02-03T02:54:58.212Z,33.00
2019-02-03T02:55:58.225Z,33.80
2019-02-03T02:56:58.172Z,33.50
2019-02-03T02:57:58.132Z,33.30
2019-02-03T02:58:58.262Z,34.00
2019-02-03T02:59:58.141Z,33.10
2019-02-03T03:00:58.040Z,34.10
2019-02-03T03:01:58.047Z,32.80
2019-02-03T03:02:58.037Z,33.50
2019-02-03T03:03:57.964Z,35.10
2019-02-03T03:04:57.931Z,34.90
2019-02-03T03:05:57.936Z,33.30
2019-02-03T03:06:57.868Z,33.50
2019-02-03T03:07:57.919Z,34.00
2019-02-03T03:08:57.824Z,32.70
2019-02-03T03:09:57.787Z,33.70
2019-02-03T03:10:57.770Z,31.70
2019-02-03T03:11:57.749Z,32.60
2019-02-03T03:12:57.720Z,33.70
2019-02-03T03:13:57.716Z,33.00
2019-02-03T03:14:57.669Z,33.20
2019-02-03T03:15:57.693Z,31.70
2019-02-03T03:16:57.598Z,33.40
2019-02-03T03:17:57.627Z,33.00
2019-02-03T03:18:57.545Z,34.10
2019-02-03T03:19:57.535Z,32.30
2019-02-03T03:20:57.487Z,31.00
2019-02-03T03:21:57.465Z,31.00
2019-02-03T03:22:57.455Z,34.30
2019-02-03T03:23:57.446Z,33.30
2019-02-03T03:24:57.412Z,33.30
2019-02-03T03:25:57.375Z,33.50
2019-02-03T03:26:57.346Z,33.60
2019-02-03T03:27:57.365Z,31.90
2019-02-03T03:28:57.303Z,33.60
2019-02-03T03:29:57.270Z,33.90
2019-02-03T03:30:57.222Z,31.30
2019-02-03T03:31:57.216Z,33.60
2019-02-03T03:32:57.162Z,34.20
2019-02-03T03:33:57.148Z,32.90
2019-02-03T03:34:57.128Z,34.00
2019-02-03T03:35:57.091Z,33.80
2019-02-03T03:36:57.097Z,34.00
2019-02-03T03:37:57.052Z,32.30
2019-02-03T03:38:56.995Z,33.00
2019-02-03T03:39:56.976Z,32.20
2019-02-03T03:40:56.945Z,34.40
2019-02-03T03:41:56.937Z,33.00
2019-02-03T03:42:56.889Z,32.60
2019-02-03T03:43:56.893Z,32.70
2019-02-03T03:44:56.831Z,32.60
2019-02-03T03:45:56.814Z,33.40
2019-02-03T03:46:56.788Z,31.90
2019-02-03T03:47:56.769Z,32.80
2019-02-03T03:48:56.750Z,31.90
2019-02-03T03:49:56.717Z,33.10
2019-02-03T03:50:56.668Z,31.90
2019-02-03T03:51:56.659Z,32.50
2019-02-03T03:52:56.618Z,32.20
2019-02-03T03:53:56.664Z,32.40
2019-02-03T03:54:56.609Z,32.60
2019-02-03T03:55:56.538Z,32.30
2019-02-03T03:56:56.516Z,33.50
2019-02-03T03:57:56.517Z,32.90
2019-02-03T03:58:56.509Z,32.60
2019-02-03T03:59:56.422Z,34.10
2019-02-03T04:00:56.411Z,32.30
2019-02-03T04:01:56.389Z,31.40
2019-02-03T04:02:56.373Z,32.00
2019-02-03T04:03:56.341Z,32.70
2019-02-03T04:04:56.284Z,32.00
2019-02-03T04:05:56.263Z,32.20
2019-02-03T04:06:56.245Z,32.30
2019-02-03T04:07:56.242Z,31.30
2019-02-03T04:08:56.180Z,32.40
2019-02-03T04:09:56.244Z,32.30
2019-02-03T04:10:56.164Z,31.60
2019-02-03T04:11:56.099Z,31.90
2019-02-03T04:12:56.088Z,32.20
2019-02-03T04:13:56.043Z,31.90
2019-02-03T04:14:56.021Z,31.80
2019-02-03T04:15:55.993Z,32.00
2019-02-03T04:16:55.975Z,32.50
2019-02-03T04:17:56.001Z,32.00
2019-02-03T04:18:56.111Z,32.40
2019-02-03T04:19:55.897Z,32.70
2019-02-03T04:20:55.875Z,31.40
2019-02-03T04:21:55.863Z,31.70
2019-02-03T04:22:55.895Z,32.40
2019-02-03T04:23:55.792Z,32.30
2019-02-03T04:24:55.744Z,31.40
2019-02-03T04:25:55.728Z,30.90
2019-02-03T04:26:55.692Z,30.70
2019-02-03T04:27:55.674Z,30.80
2019-02-03T04:28:55.630Z,30.60
2019-02-03T04:29:55.608Z,31.50
2019-02-03T04:30:55.593Z,29.60
2019-02-03T04:31:55.620Z,29.60
2019-02-03T04:32:55.695Z,30.80
2019-02-03T04:33:55.535Z,29.50
2019-02-03T04:34:55.471Z,30.40
2019-02-03T04:35:55.479Z,30.30
2019-02-03T04:36:55.493Z,30.70
2019-02-03T04:37:55.404Z,30.50
2019-02-03T04:38:58.184Z,30.20
2019-02-03T04:39:55.366Z,29.80
2019-02-03T04:40:55.405Z,28.40
2019-02-03T04:41:55.285Z,30.10
2019-02-03T04:42:55.292Z,30.00
2019-02-03T04:43:55.263Z,28.90
2019-02-03T04:44:55.284Z,30.00
2019-02-03T04:45:55.183Z,29.30
2019-02-03T04:46:55.150Z,26.90
2019-02-03T04:47:55.144Z,28.50
2019-02-03T04:48:55.090Z,27.60
2019-02-03T04:49:55.072Z,27.90
2019-02-03T04:50:55.062Z,27.80
2019-02-03T04:51:55.046Z,28.10
2019-02-03T04:52:55.019Z,27.10
2019-02-03T04:53:54.973Z,29.10
2019-02-03T04:54:54.947Z,28.70
2019-02-03T04:55:54.925Z,28.10
2019-02-03T04:56:54.904Z,26.60
2019-02-03T04:57:54.847Z,28.20
2019-02-03T04:58:54.886Z,26.70
2019-02-03T04:59:54.805Z,27.70
2019-02-03T05:00:54.768Z,27.20
2019-02-03T05:01:54.784Z,29.70
2019-02-03T05:02:54.703Z,27.80
2019-02-03T05:03:54.699Z,27.80
2019-02-03T05:04:54.682Z,28.40
2019-02-03T05:05:54.647Z,28.40
2019-02-03T05:06:54.610Z,28.50
2019-02-03T05:07:54.675Z,28.30
2019-02-03T05:08:54.575Z,27.70
2019-02-03T05:09:54.522Z,26.70
2019-02-03T05:10:54.497Z,27.20
2019-02-03T05:11:54.464Z,25.50
2019-02-03T05:12:54.431Z,25.70
2019-02-03T05:13:54.411Z,27.00
2019-02-03T05:14:54.408Z,26.40
2019-02-03T05:15:54.382Z,25.30
2019-02-03T05:16:54.339Z,25.70
2019-02-03T05:17:54.314Z,25.20
2019-02-03T05:18:54.342Z,26.60
2019-02-03T05:19:54.251Z,26.60
2019-02-03T05:20:54.236Z,29.50
2019-02-03T05:21:54.224Z,27.40
2019-02-03T05:22:54.261Z,27.80
2019-02-03T05:23:54.144Z,25.90
2019-02-03T05:24:54.124Z,27.30
2019-02-03T05:25:54.587Z,28.00
2019-02-03T05:26:54.078Z,27.10
2019-02-03T05:27:54.036Z,25.80
2019-02-03T05:28:54.000Z,26.00
2019-02-03T05:29:53.977Z,26.30
2019-02-03T05:30:53.951Z,26.20
2019-02-03T05:31:53.943Z,26.10
2019-02-03T05:32:53.905Z,25.30
2019-02-03T05:33:53.950Z,25.90
2019-02-03T05:34:53.841Z,24.30
2019-02-03T05:35:53.829Z,25.50
2019-02-03T05:36:53.801Z,25.50
2019-02-03T05:37:53.780Z,24.20
2019-02-03T05:38:55.330Z,26.50
2019-02-03T05:39:53.722Z,29.80
2019-02-03T05:40:53.671Z,28.20
2019-02-03T05:41:53.647Z,26.70
2019-02-03T05:42:53.695Z,27.40
2019-02-03T05:43:53.591Z,26.90
2019-02-03T05:44:53.567Z,27.00
2019-02-03T05:45:53.587Z,25.80
2019-02-03T05:46:53.590Z,26.30
2019-02-03T05:47:53.527Z,26.60
2019-02-03T05:48:53.459Z,26.90
2019-02-03T05:49:53.433Z,28.20
2019-02-03T05:50:53.400Z,27.60
2019-02-03T05:51:53.359Z,29.40
2019-02-03T05:52:53.360Z,28.00
2019-02-03T05:53:53.312Z,27.90
2019-02-03T05:54:53.287Z,27.10
2019-02-03T05:55:53.253Z,28.40
2019-02-03T05:56:53.305Z,27.90
2019-02-03T05:57:53.237Z,27.20
2019-02-03T05:58:53.173Z,27.00
2019-02-03T05:59:53.179Z,28.50
2019-02-03T06:00:53.158Z,28.00
2019-02-03T06:01:53.104Z,28.80
2019-02-03T06:02:53.090Z,28.00
2019-02-03T06:03:53.064Z,28.10
2019-02-03T06:04:53.019Z,27.50
2019-02-03T06:05:52.996Z,26.80
2019-02-03T06:06:53.022Z,27.80
2019-02-03T06:07:52.944Z,27.00
2019-02-03T06:08:52.906Z,27.90
2019-02-03T06:09:52.882Z,27.10
2019-02-03T06:10:52.847Z,27.40
2019-02-03T06:11:52.857Z,26.60
2019-02-03T06:12:52.811Z,26.80
2019-02-03T06:13:52.768Z,27.90
2019-02-03T06:14:52.751Z,26.80
2019-02-03T06:15:52.710Z,25.00
2019-02-03T06:16:52.692Z,26.90
2019-02-03T06:17:52.663Z,26.20
2019-02-03T06:18:52.671Z,25.60
2019-02-03T06:19:52.649Z,26.10
2019-02-03T06:20:52.572Z,26.20
2019-02-03T06:21:52.568Z,25.30
2019-02-03T06:22:52.522Z,25.40
2019-02-03T06:23:52.543Z,25.20
2019-02-03T06:24:52.466Z,26.00
2019-02-03T06:25:52.439Z,25.60
2019-02-03T06:26:52.460Z,24.10
2019-02-03T06:27:52.430Z,24.90
2019-02-03T06:28:52.364Z,25.20
2019-02-03T06:29:52.342Z,25.10
2019-02-03T06:30:52.334Z,25.10
2019-02-03T06:31:52.314Z,24.80
2019-02-03T06:32:52.274Z,24.40
2019-02-03T06:33:52.243Z,24.00
2019-02-03T06:34:52.190Z,23.50
2019-02-03T06:35:52.188Z,24.20
2019-02-03T06:36:52.191Z,24.50
2019-02-03T06:37:52.113Z,23.70
2019-02-03T06:38:52.090Z,23.50
2019-02-03T06:39:52.053Z,23.80
2019-02-03T06:40:52.036Z,22.90
2019-02-03T06:41:52.123Z,24.60
2019-02-03T06:42:52.001Z,22.60
2019-02-03T06:43:51.976Z,22.80
2019-02-03T06:44:51.921Z,23.00
2019-02-03T06:45:51.917Z,23.40
2019-02-03T06:46:51.859Z,22.70
2019-02-03T06:47:51.839Z,22.90
2019-02-03T06:48:51.929Z,21.40
2019-02-03T06:49:51.777Z,23.00
2019-02-03T06:50:51.784Z,21.30
2019-02-03T06:51:51.755Z,22.50
2019-02-03T06:52:51.728Z,21.30
2019-02-03T06:53:51.704Z,20.40
2019-02-03T06:54:51.646Z,21.90
2019-02-03T06:55:51.646Z,22.40
2019-02-03T06:56:51.604Z,20.30
2019-02-03T06:57:51.569Z,21.00
2019-02-03T06:58:51.535Z,22.00
2019-02-03T06:59:51.589Z,21.10
2019-02-03T07:00:51.513Z,21.40
2019-02-03T07:01:51.447Z,21.70
2019-02-03T07:02:51.425Z,20.40
2019-02-03T07:03:51.392Z,19.50
2019-02-03T07:04:51.374Z,21.90
2019-02-03T07:05:51.369Z,22.10
2019-02-03T07:06:51.312Z,19.60
2019-02-03T07:07:51.294Z,21.20
2019-02-03T07:08:51.273Z,21.10
2019-02-03T07:10:00.361Z,21.60
2019-02-03T07:10:51.206Z,20.90
2019-02-03T07:11:51.179Z,21.50
2019-02-03T07:12:51.188Z,20.70
2019-02-03T07:13:51.138Z,19.50
2019-02-03T07:14:51.097Z,18.90
2019-02-03T07:15:51.062Z,20.50
2019-02-03T07:16:51.046Z,20.20
2019-02-03T07:17:51.035Z,20.40
2019-02-03T07:18:51.011Z,19.40
2019-02-03T07:19:50.957Z,19.70
2019-02-03T07:20:50.934Z,19.70
2019-02-03T07:21:50.919Z,20.20
2019-02-03T07:22:50.880Z,20.70
2019-02-03T07:23:50.847Z,20.80
2019-02-03T07:24:50.822Z,20.40
2019-02-03T07:25:50.788Z,19.90
2019-02-03T07:26:50.771Z,19.60
2019-02-03T07:27:50.737Z,19.60
2019-02-03T07:28:50.710Z,19.10
2019-02-03T07:29:50.683Z,19.10
2019-02-03T07:30:50.646Z,20.50
2019-02-03T07:31:50.618Z,18.80
2019-02-03T07:32:50.601Z,19.30
2019-02-03T07:33:50.601Z,19.50
2019-02-03T07:34:50.552Z,19.00
2019-02-03T07:35:50.542Z,18.40
2019-02-03T07:36:50.505Z,18.40
2019-02-03T07:37:50.462Z,19.00
2019-02-03T07:38:50.432Z,19.20
2019-02-03T07:39:50.441Z,18.20
2019-02-03T07:40:50.373Z,17.60
2019-02-03T07:41:50.359Z,18.60
2019-02-03T07:42:50.324Z,18.20
2019-02-03T07:43:50.302Z,17.30
2019-02-03T07:44:50.270Z,17.60
2019-02-03T07:45:50.247Z,17.60
2019-02-03T07:46:50.228Z,17.20
2019-02-03T07:47:50.249Z,16.90
2019-02-03T07:48:50.205Z,18.10
2019-02-03T07:49:50.133Z,17.00
2019-02-03T07:50:50.113Z,17.50
2019-02-03T07:51:50.094Z,16.80
2019-02-03T07:52:50.038Z,17.40
2019-02-03T07:53:50.035Z,16.90
2019-02-03T07:54:50.015Z,16.50
2019-02-03T07:55:49.958Z,16.00
2019-02-03T07:56:49.934Z,17.80
2019-02-03T07:57:49.937Z,16.20
2019-02-03T07:58:49.878Z,16.50
2019-02-03T07:59:49.853Z,18.50
2019-02-03T08:00:49.824Z,16.80
2019-02-03T08:01:49.795Z,16.80
2019-02-03T08:02:49.764Z,15.90
2019-02-03T08:03:49.736Z,16.40
2019-02-03T08:04:49.713Z,16.20
2019-02-03T08:05:49.882Z,16.40
2019-02-03T08:06:49.731Z,16.10
2019-02-03T08:07:49.658Z,15.80
2019-02-03T08:08:49.599Z,16.20
2019-02-03T08:09:49.586Z,15.70
2019-02-03T08:10:49.547Z,15.60
2019-02-03T08:11:49.510Z,15.60
2019-02-03T08:12:49.489Z,16.40
2019-02-03T08:13:49.483Z,15.40
2019-02-03T08:14:49.437Z,15.60
2019-02-03T08:15:49.461Z,15.70
2019-02-03T08:16:49.381Z,15.50
2019-02-03T08:17:49.345Z,15.80
2019-02-03T08:18:49.342Z,15.80
2019-02-03T08:19:49.304Z,15.30
2019-02-03T08:20:49.281Z,15.50
2019-02-03T08:21:49.247Z,15.70
2019-02-03T08:22:49.229Z,14.50
2019-02-03T08:23:51.220Z,16.60
2019-02-03T08:24:49.159Z,15.30
2019-02-03T08:25:49.130Z,14.40
2019-02-03T08:26:49.108Z,15.00
2019-02-03T08:27:49.100Z,15.00
2019-02-03T08:28:49.057Z,15.00
2019-02-03T08:29:49.036Z,14.00
2019-02-03T08:30:48.995Z,14.00
2019-02-03T08:31:48.971Z,14.80
2019-02-03T08:32:48.937Z,14.90
2019-02-03T08:33:48.912Z,14.30
2019-02-03T08:34:48.874Z,13.40
2019-02-03T08:35:48.868Z,14.00
2019-02-03T08:36:48.823Z,14.30
2019-02-03T08:37:48.801Z,13.70
2019-02-03T08:38:48.774Z,13.60
2019-02-03T08:39:48.741Z,12.70
2019-02-03T08:40:48.718Z,13.70
2019-02-03T08:41:48.688Z,14.20
2019-02-03T08:42:48.666Z,13.20
2019-02-03T08:43:48.632Z,13.70
2019-02-03T08:44:48.614Z,12.80
2019-02-03T08:45:48.591Z,12.70
2019-02-03T08:46:48.559Z,12.80
2019-02-03T08:47:48.526Z,13.20
2019-02-03T08:48:48.523Z,13.10
2019-02-03T08:49:48.479Z,13.00
2019-02-03T08:50:48.443Z,12.90
2019-02-03T08:51:48.447Z,13.00
2019-02-03T08:52:51.331Z,12.30
2019-02-03T08:53:48.361Z,12.70
2019-02-03T08:54:57.960Z,12.40
2019-02-03T08:55:48.366Z,12.70
2019-02-03T08:56:48.274Z,12.50
2019-02-03T08:57:48.252Z,12.90
2019-02-03T08:58:48.221Z,11.90
2019-02-03T08:59:48.210Z,12.10
2019-02-03T09:00:48.174Z,11.50
2019-02-03T09:01:48.144Z,12.10
2019-02-03T09:02:48.127Z,11.70
2019-02-03T09:03:48.084Z,11.20
2019-02-03T09:04:48.064Z,11.50
2019-02-03T09:05:48.034Z,10.60
2019-02-03T09:06:48.008Z,11.20
2019-02-03T09:07:48.015Z,11.60
2019-02-03T09:08:47.950Z,10.50
2019-02-03T09:09:47.928Z,11.50
2019-02-03T09:10:48.917Z,11.60
2019-02-03T09:11:47.906Z,10.00
2019-02-03T09:12:47.848Z,10.40
2019-02-03T09:13:47.824Z,10.80
2019-02-03T09:14:47.799Z,10.80
2019-02-03T09:15:47.770Z,11.10
2019-02-03T09:16:47.735Z,10.90
2019-02-03T09:17:47.704Z,10.40
2019-02-03T09:18:47.682Z,10.50
2019-02-03T09:19:47.659Z,10.00
2019-02-03T09:20:48.313Z,10.60
2019-02-03T09:21:47.604Z,9.60
2019-02-03T09:22:47.571Z,9.60
2019-02-03T09:23:47.565Z,10.80
2019-02-03T09:24:47.552Z,10.90
2019-02-03T09:25:47.494Z,10.00
2019-02-03T09:26:47.469Z,10.00
2019-02-03T09:27:47.468Z,9.20
2019-02-03T09:28:47.441Z,9.50
2019-02-03T09:29:47.409Z,9.80
2019-02-03T09:30:47.370Z,10.60
2019-02-03T09:31:47.333Z,9.60
2019-02-03T09:32:47.317Z,9.40
2019-02-03T09:33:47.304Z,9.00
2019-02-03T09:34:47.248Z,9.30
2019-02-03T09:35:47.233Z,8.40
2019-02-03T09:36:47.234Z,9.10
2019-02-03T09:37:47.176Z,9.30
2019-02-03T09:38:47.154Z,9.00
2019-02-03T09:39:47.146Z,8.90
2019-02-03T09:40:47.109Z,8.70
2019-02-03T09:41:47.157Z,8.70
2019-02-03T09:42:47.301Z,8.80
2019-02-03T09:43:47.007Z,8.00
2019-02-03T09:44:47.016Z,8.40
2019-02-03T09:45:46.963Z,7.70
2019-02-03T09:46:46.924Z,7.60
2019-02-03T09:47:46.926Z,7.60
2019-02-03T09:48:46.901Z,7.50
2019-02-03T09:49:46.865Z,6.90
2019-02-03T09:50:46.829Z,7.50
2019-02-03T09:51:46.812Z,8.50
2019-02-03T09:52:46.812Z,7.70
2019-02-03T09:53:46.742Z,7.10
2019-02-03T09:54:46.746Z,7.40
2019-02-03T09:55:46.697Z,7.60
2019-02-03T09:56:46.690Z,8.30
2019-02-03T09:57:46.640Z,6.70
2019-02-03T09:58:46.620Z,6.60
2019-02-03T09:59:46.586Z,6.70
2019-02-03T10:00:46.583Z,6.70
2019-02-03T10:01:46.527Z,6.50
2019-02-03T10:02:46.505Z,7.60
2019-02-03T10:03:46.471Z,6.70
2019-02-03T10:04:46.492Z,7.20
2019-02-03T10:05:46.424Z,6.10
2019-02-03T10:06:46.408Z,6.60
2019-02-03T10:07:46.372Z,6.60
2019-02-03T10:08:46.333Z,6.00
2019-02-03T10:09:46.377Z,5.80
2019-02-03T10:10:46.303Z,6.40
2019-02-03T10:11:46.262Z,5.30
2019-02-03T10:12:46.234Z,5.90
2019-02-03T10:13:46.206Z,5.50
2019-02-03T10:14:46.178Z,6.30
2019-02-03T10:15:46.184Z,5.30
2019-02-03T10:16:47.576Z,5.80
2019-02-03T10:17:46.098Z,5.70
2019-02-03T10:18:46.087Z,6.10
2019-02-03T10:19:46.057Z,5.40
2019-02-03T10:20:46.027Z,5.80
2019-02-03T10:21:46.085Z,5.30
2019-02-03T10:22:46.002Z,5.80
2019-02-03T10:23:46.044Z,5.00
2019-02-03T10:24:45.936Z,5.00
2019-02-03T10:25:45.895Z,5.40
2019-02-03T10:26:45.854Z,6.10
2019-02-03T10:27:45.855Z,5.00
2019-02-03T10:28:46.729Z,5.30
2019-02-03T10:29:45.790Z,5.10
2019-02-03T10:30:45.759Z,5.50
2019-02-03T10:31:45.772Z,5.60
2019-02-03T10:32:45.718Z,5.30
2019-02-03T10:33:45.686Z,5.60
2019-02-03T10:34:45.647Z,5.40
2019-02-03T10:35:45.650Z,5.90
2019-02-03T10:36:45.609Z,5.30
2019-02-03T10:37:45.572Z,5.60
2019-02-03T10:38:45.594Z,4.30
2019-02-03T10:39:45.649Z,5.30
2019-02-03T10:40:45.527Z,4.50
2019-02-03T10:41:45.468Z,5.20
2019-02-03T10:42:45.455Z,4.70
2019-02-03T10:43:45.421Z,4.80
2019-02-03T10:44:45.415Z,5.20
2019-02-03T10:45:45.357Z,5.20
2019-02-03T10:46:45.344Z,4.90
2019-02-03T10:47:45.891Z,4.80
2019-02-03T10:48:45.278Z,4.60
2019-02-03T10:49:46.803Z,4.70
2019-02-03T10:50:45.286Z,4.90
2019-02-03T10:51:45.580Z,5.20
2019-02-03T10:52:45.172Z,5.00
2019-02-03T10:53:45.169Z,4.50
2019-02-03T10:54:45.172Z,4.80
2019-02-03T10:55:45.102Z,4.10
2019-02-03T10:56:45.091Z,4.10
2019-02-03T10:57:45.053Z,4.40
2019-02-03T10:58:45.046Z,4.40
2019-02-03T10:59:45.009Z,4.70
2019-02-03T11:00:44.970Z,4.50
2019-02-03T11:03:18.059Z,4.30
2019-02-03T11:04:07.938Z,4.40
2019-02-03T11:05:07.943Z,4.40
2019-02-03T11:06:07.887Z,4.80
2019-02-03T11:07:07.947Z,4.50
2019-02-03T11:08:07.864Z,4.20
2019-02-03T11:09:07.819Z,3.70
2019-02-03T11:10:07.819Z,4.20
2019-02-03T11:11:07.751Z,4.30
2019-02-03T11:12:07.746Z,4.20
2019-02-03T11:13:07.721Z,3.80
2019-02-03T11:14:07.674Z,3.60
2019-02-03T11:15:07.664Z,3.50
2019-02-03T11:16:07.647Z,4.00
2019-02-03T11:17:07.611Z,3.80
2019-02-03T11:18:07.567Z,3.80
2019-02-03T11:19:07.567Z,3.70
2019-02-03T11:20:07.520Z,3.50
2019-02-03T11:21:07.501Z,3.60
2019-02-03T11:22:07.490Z,3.70
2019-02-03T11:23:07.454Z,3.60
2019-02-03T11:24:07.426Z,3.30
2019-02-03T11:25:07.413Z,4.10
2019-02-03T11:26:07.386Z,3.30
2019-02-03T11:27:07.338Z,3.80
2019-02-03T11:28:07.343Z,3.50
2019-02-03T11:29:07.330Z,3.80
2019-02-03T11:30:07.268Z,3.60
2019-02-03T11:31:07.261Z,4.30
2019-02-03T11:32:07.245Z,3.50
2019-02-03T11:33:08.038Z,3.80
2019-02-03T11:34:07.193Z,3.50
2019-02-03T11:35:07.157Z,3.30
2019-02-03T11:36:07.131Z,3.40
2019-02-03T11:37:07.107Z,3.10
2019-02-03T11:38:07.097Z,3.40
2019-02-03T11:39:07.075Z,3.10
2019-02-03T11:40:07.032Z,3.20
2019-02-03T11:41:06.994Z,3.40
2019-02-03T11:42:06.965Z,3.60
2019-02-03T11:43:06.961Z,3.00
2019-02-03T11:44:06.915Z,3.30
2019-02-03T11:45:06.896Z,3.60
2019-02-03T11:46:06.869Z,3.10
2019-02-03T11:47:06.839Z,3.40
2019-02-03T11:48:06.852Z,3.60
2019-02-03T11:49:06.878Z,3.00
2019-02-03T11:50:06.803Z,3.10
2019-02-03T11:51:06.758Z,3.10
2019-02-03T11:52:06.733Z,3.20
2019-02-03T11:53:06.695Z,3.30
2019-02-03T11:54:06.675Z,3.40
2019-02-03T11:55:06.642Z,3.20
2019-02-03T11:56:06.641Z,3.30
2019-02-03T11:57:06.622Z,3.60
2019-02-03T11:58:06.645Z,3.40
2019-02-03T11:59:06.562Z,2.80
2019-02-03T12:00:06.547Z,3.10
2019-02-03T12:01:06.500Z,3.00
2019-02-03T12:02:06.489Z,3.00
2019-02-03T12:03:06.455Z,3.30
2019-02-03T12:04:06.429Z,2.80
2019-02-03T12:05:06.405Z,2.90
2019-02-03T12:06:06.368Z,3.20
2019-02-03T12:07:06.339Z,2.70
2019-02-03T12:08:06.362Z,3.60
2019-02-03T12:09:06.327Z,3.10
2019-02-03T12:10:06.274Z,3.00
2019-02-03T12:11:06.244Z,3.50
2019-02-03T12:12:06.217Z,2.80
2019-02-03T12:13:06.187Z,3.10
2019-02-03T12:14:06.184Z,3.10
2019-02-03T12:15:06.171Z,3.50
2019-02-03T12:16:06.135Z,3.50
2019-02-03T12:17:06.091Z,3.10
2019-02-03T12:18:06.082Z,3.10
2019-02-03T12:19:06.053Z,2.90
2019-02-03T12:20:06.019Z,2.90
2019-02-03T12:21:05.996Z,2.90
2019-02-03T12:22:05.973Z,3.30
2019-02-03T12:23:05.950Z,3.20
2019-02-03T12:24:05.929Z,3.30
2019-02-03T12:25:05.898Z,3.00
2019-02-03T12:26:06.966Z,2.90
2019-02-03T12:27:05.850Z,3.00
2019-02-03T12:28:05.837Z,2.80
2019-02-03T12:29:05.821Z,2.80
2019-02-03T12:30:05.782Z,2.80
2019-02-03T12:31:05.749Z,2.70
2019-02-03T12:32:05.726Z,2.70
2019-02-03T12:33:05.716Z,2.80
2019-02-03T12:34:05.690Z,2.70
2019-02-03T12:35:05.669Z,2.50
2019-02-03T12:36:05.648Z,2.80
2019-02-03T12:37:05.605Z,2.40
2019-02-03T12:38:05.635Z,2.90
2019-02-03T12:39:05.553Z,2.70
2019-02-03T12:40:05.550Z,2.60
2019-02-03T12:41:05.522Z,2.60
2019-02-03T12:42:12.775Z,2.60
2019-02-03T12:43:05.457Z,2.70
2019-02-03T12:44:05.439Z,2.80
2019-02-03T12:45:05.444Z,2.60
2019-02-03T12:46:05.402Z,2.90
2019-02-03T12:47:05.367Z,3.00
2019-02-03T12:48:05.390Z,2.80
2019-02-03T12:49:05.323Z,2.90
2019-02-03T12:50:05.332Z,2.60
2019-02-03T12:51:05.289Z,3.20
2019-02-03T12:52:05.271Z,2.70
2019-02-03T12:53:05.221Z,2.90
2019-02-03T12:54:05.209Z,2.90
2019-02-03T12:55:05.170Z,2.40
2019-02-03T12:56:05.170Z,2.60
2019-02-03T12:57:05.146Z,2.80
2019-02-03T12:58:05.107Z,2.70
2019-02-03T12:59:05.100Z,2.50
2019-02-03T13:00:05.071Z,2.70